sensor_id;sensor_type;location;lat;lon;timestamp;P1;durP1;ratioP1;P2;durP2;ratioP2
67041;SDS011;53949;47.790;18.750;2023-08-07T00:00:24;0.25;;;0.25;;
67041;SDS011;53949;47.790;18.750;2023-08-07T00:03:29;0.20;;;0.20;;
67041;SDS011;53949;47.790;18.750;2023-08-07T00:06:32;3.03;;;0.37;;
67041;SDS011;53949;47.790;18.750;2023-08-07T00:09:35;1.25;;;0.35;;
67041;SDS011;53949;47.790;18.750;2023-08-07T00:12:39;0.25;;;0.25;;
67041;SDS011;53949;47.790;18.750;2023-08-07T00:15:42;0.30;;;0.30;;
67041;SDS011;53949;47.790;18.750;2023-08-07T00:18:45;0.20;;;0.20;;
67041;SDS011;53949;47.790;18.750;2023-08-07T00:21:49;0.25;;;0.25;;
67041;SDS011;53949;47.790;18.750;2023-08-07T00:24:52;0.30;;;0.30;;
67041;SDS011;53949;47.790;18.750;2023-08-07T00:27:56;0.65;;;0.20;;
67041;SDS011;53949;47.790;18.750;2023-08-07T00:30:59;1.17;;;0.20;;
67041;SDS011;53949;47.790;18.750;2023-08-07T00:34:02;0.20;;;0.20;;
67041;SDS011;53949;47.790;18.750;2023-08-07T00:37:06;0.13;;;0.13;;
67041;SDS011;53949;47.790;18.750;2023-08-07T00:40:10;3.97;;;0.28;;
67041;SDS011;53949;47.790;18.750;2023-08-07T00:43:14;0.10;;;0.10;;
67041;SDS011;53949;47.790;18.750;2023-08-07T00:46:17;0.30;;;0.30;;
67041;SDS011;53949;47.790;18.750;2023-08-07T00:49:23;0.37;;;0.20;;
67041;SDS011;53949;47.790;18.750;2023-08-07T00:52:26;0.40;;;0.30;;
67041;SDS011;53949;47.790;18.750;2023-08-07T00:55:29;0.30;;;0.30;;
67041;SDS011;53949;47.790;18.750;2023-08-07T00:58:33;0.20;;;0.20;;
67041;SDS011;53949;47.790;18.750;2023-08-07T01:01:37;0.80;;;0.20;;
67041;SDS011;53949;47.790;18.750;2023-08-07T01:04:41;0.30;;;0.30;;
67041;SDS011;53949;47.790;18.750;2023-08-07T01:07:46;0.30;;;0.30;;
67041;SDS011;53949;47.790;18.750;2023-08-07T01:11:14;0.20;;;0.20;;
67041;SDS011;53949;47.790;18.750;2023-08-07T01:17:37;0.20;;;0.20;;
67041;SDS011;53949;47.790;18.750;2023-08-07T01:20:40;0.10;;;0.10;;
67041;SDS011;53949;47.790;18.750;2023-08-07T01:23:45;0.32;;;0.20;;
67041;SDS011;53949;47.790;18.750;2023-08-07T01:26:50;0.75;;;0.30;;
67041;SDS011;53949;47.790;18.750;2023-08-07T01:30:09;1.95;;;0.30;;
67041;SDS011;53949;47.790;18.750;2023-08-07T01:33:19;0.82;;;0.15;;
67041;SDS011;53949;47.790;18.750;2023-08-07T01:36:28;0.40;;;0.40;;
67041;SDS011;53949;47.790;18.750;2023-08-07T01:39:32;0.20;;;0.20;;
67041;SDS011;53949;47.790;18.750;2023-08-07T01:42:37;0.30;;;0.20;;
67041;SDS011;53949;47.790;18.750;2023-08-07T01:45:40;0.20;;;0.20;;
67041;SDS011;53949;47.790;18.750;2023-08-07T01:48:45;1.17;;;0.30;;
67041;SDS011;53949;47.790;18.750;2023-08-07T01:51:49;0.20;;;0.20;;
67041;SDS011;53949;47.790;18.750;2023-08-07T01:54:54;0.70;;;0.45;;
67041;SDS011;53949;47.790;18.750;2023-08-07T01:57:58;0.65;;;0.30;;
67041;SDS011;53949;47.790;18.750;2023-08-07T02:01:01;0.20;;;0.20;;
67041;SDS011;53949;47.790;18.750;2023-08-07T02:04:05;0.17;;;0.17;;
67041;SDS011;53949;47.790;18.750;2023-08-07T02:07:08;0.70;;;0.28;;
67041;SDS011;53949;47.790;18.750;2023-08-07T02:10:12;5.18;;;0.65;;
67041;SDS011;53949;47.790;18.750;2023-08-07T02:13:15;0.20;;;0.20;;
67041;SDS011;53949;47.790;18.750;2023-08-07T02:16:18;0.50;;;0.50;;
67041;SDS011;53949;47.790;18.750;2023-08-07T02:19:22;1.45;;;0.20;;
67041;SDS011;53949;47.790;18.750;2023-08-07T02:22:25;0.30;;;0.30;;
67041;SDS011;53949;47.790;18.750;2023-08-07T02:25:29;0.20;;;0.20;;
67041;SDS011;53949;47.790;18.750;2023-08-07T02:28:32;0.13;;;0.13;;
67041;SDS011;53949;47.790;18.750;2023-08-07T02:31:36;0.30;;;0.30;;
67041;SDS011;53949;47.790;18.750;2023-08-07T02:34:39;0.28;;;0.25;;
67041;SDS011;53949;47.790;18.750;2023-08-07T02:37:44;0.20;;;0.20;;
67041;SDS011;53949;47.790;18.750;2023-08-07T02:40:47;0.30;;;0.30;;
67041;SDS011;53949;47.790;18.750;2023-08-07T02:43:51;1.55;;;0.20;;
67041;SDS011;53949;47.790;18.750;2023-08-07T02:46:55;0.90;;;0.20;;
67041;SDS011;53949;47.790;18.750;2023-08-07T02:50:00;0.30;;;0.30;;
67041;SDS011;53949;47.790;18.750;2023-08-07T02:53:04;0.82;;;0.35;;
67041;SDS011;53949;47.790;18.750;2023-08-07T02:56:08;5.07;;;0.45;;
67041;SDS011;53949;47.790;18.750;2023-08-07T02:59:11;0.20;;;0.20;;
67041;SDS011;53949;47.790;18.750;2023-08-07T03:02:15;0.47;;;0.47;;
67041;SDS011;53949;47.790;18.750;2023-08-07T03:05:18;0.45;;;0.40;;
67041;SDS011;53949;47.790;18.750;2023-08-07T03:08:22;0.52;;;0.30;;
67041;SDS011;53949;47.790;18.750;2023-08-07T03:11:25;0.20;;;0.20;;
67041;SDS011;53949;47.790;18.750;2023-08-07T03:14:28;0.40;;;0.40;;
67041;SDS011;53949;47.790;18.750;2023-08-07T03:17:32;0.47;;;0.30;;
67041;SDS011;53949;47.790;18.750;2023-08-07T03:20:36;2.12;;;0.37;;
67041;SDS011;53949;47.790;18.750;2023-08-07T03:23:45;3.42;;;0.30;;
67041;SDS011;53949;47.790;18.750;2023-08-07T03:26:48;0.60;;;0.47;;
67041;SDS011;53949;47.790;18.750;2023-08-07T03:29:52;0.40;;;0.40;;
67041;SDS011;53949;47.790;18.750;2023-08-07T03:32:58;0.30;;;0.30;;
67041;SDS011;53949;47.790;18.750;2023-08-07T03:36:03;0.30;;;0.30;;
67041;SDS011;53949;47.790;18.750;2023-08-07T03:39:07;0.30;;;0.30;;
67041;SDS011;53949;47.790;18.750;2023-08-07T03:42:11;1.37;;;0.40;;
67041;SDS011;53949;47.790;18.750;2023-08-07T03:45:15;0.57;;;0.50;;
67041;SDS011;53949;47.790;18.750;2023-08-07T03:48:20;0.60;;;0.60;;
67041;SDS011;53949;47.790;18.750;2023-08-07T03:51:24;0.30;;;0.30;;
67041;SDS011;53949;47.790;18.750;2023-08-07T03:54:30;0.35;;;0.35;;
67041;SDS011;53949;47.790;18.750;2023-08-07T03:57:33;0.30;;;0.30;;
67041;SDS011;53949;47.790;18.750;2023-08-07T04:00:36;0.50;;;0.32;;
67041;SDS011;53949;47.790;18.750;2023-08-07T04:03:40;0.50;;;0.50;;
67041;SDS011;53949;47.790;18.750;2023-08-07T04:06:43;0.77;;;0.50;;
67041;SDS011;53949;47.790;18.750;2023-08-07T04:09:47;0.98;;;0.47;;
67041;SDS011;53949;47.790;18.750;2023-08-07T04:12:50;0.40;;;0.40;;
67041;SDS011;53949;47.790;18.750;2023-08-07T04:15:54;0.40;;;0.40;;
67041;SDS011;53949;47.790;18.750;2023-08-07T04:18:58;1.17;;;0.52;;
67041;SDS011;53949;47.790;18.750;2023-08-07T04:22:01;0.35;;;0.35;;
67041;SDS011;53949;47.790;18.750;2023-08-07T04:25:04;1.33;;;0.55;;
67041;SDS011;53949;47.790;18.750;2023-08-07T04:28:08;0.40;;;0.40;;
67041;SDS011;53949;47.790;18.750;2023-08-07T04:31:12;2.17;;;0.80;;
67041;SDS011;53949;47.790;18.750;2023-08-07T04:37:31;0.43;;;0.40;;
67041;SDS011;53949;47.790;18.750;2023-08-07T04:40:35;0.30;;;0.30;;
67041;SDS011;53949;47.790;18.750;2023-08-07T04:43:38;0.88;;;0.43;;
67041;SDS011;53949;47.790;18.750;2023-08-07T04:46:42;0.40;;;0.40;;
67041;SDS011;53949;47.790;18.750;2023-08-07T04:49:45;0.32;;;0.32;;
67041;SDS011;53949;47.790;18.750;2023-08-07T04:52:49;1.02;;;0.55;;
67041;SDS011;53949;47.790;18.750;2023-08-07T04:55:52;0.45;;;0.45;;
67041;SDS011;53949;47.790;18.750;2023-08-07T04:58:56;0.43;;;0.43;;
67041;SDS011;53949;47.790;18.750;2023-08-07T05:01:59;1.33;;;0.37;;
67041;SDS011;53949;47.790;18.750;2023-08-07T05:08:07;0.45;;;0.43;;
67041;SDS011;53949;47.790;18.750;2023-08-07T05:11:11;1.45;;;0.47;;
67041;SDS011;53949;47.790;18.750;2023-08-07T05:14:14;1.48;;;0.45;;
67041;SDS011;53949;47.790;18.750;2023-08-07T05:17:18;2.47;;;1.25;;
67041;SDS011;53949;47.790;18.750;2023-08-07T05:20:21;0.40;;;0.40;;
67041;SDS011;53949;47.790;18.750;2023-08-07T05:23:27;0.75;;;0.65;;
67041;SDS011;53949;47.790;18.750;2023-08-07T05:26:31;0.45;;;0.45;;
67041;SDS011;53949;47.790;18.750;2023-08-07T05:29:34;0.32;;;0.32;;
67041;SDS011;53949;47.790;18.750;2023-08-07T05:32:46;3.85;;;0.50;;
67041;SDS011;53949;47.790;18.750;2023-08-07T05:35:55;1.30;;;0.50;;
67041;SDS011;53949;47.790;18.750;2023-08-07T05:38:59;0.52;;;0.52;;
67041;SDS011;53949;47.790;18.750;2023-08-07T05:45:07;1.75;;;1.12;;
67041;SDS011;53949;47.790;18.750;2023-08-07T05:48:12;0.50;;;0.50;;
67041;SDS011;53949;47.790;18.750;2023-08-07T05:51:16;4.43;;;0.70;;
67041;SDS011;53949;47.790;18.750;2023-08-07T05:54:20;0.60;;;0.50;;
67041;SDS011;53949;47.790;18.750;2023-08-07T06:00:29;0.62;;;0.50;;
67041;SDS011;53949;47.790;18.750;2023-08-07T06:03:34;0.40;;;0.40;;
67041;SDS011;53949;47.790;18.750;2023-08-07T06:06:37;0.50;;;0.50;;
67041;SDS011;53949;47.790;18.750;2023-08-07T06:09:42;1.30;;;0.47;;
67041;SDS011;53949;47.790;18.750;2023-08-07T06:12:45;0.55;;;0.50;;
67041;SDS011;53949;47.790;18.750;2023-08-07T06:15:49;1.00;;;0.43;;
67041;SDS011;53949;47.790;18.750;2023-08-07T06:18:52;0.62;;;0.62;;
67041;SDS011;53949;47.790;18.750;2023-08-07T06:21:56;3.70;;;0.60;;
67041;SDS011;53949;47.790;18.750;2023-08-07T06:25:00;3.83;;;0.52;;
67041;SDS011;53949;47.790;18.750;2023-08-07T06:28:04;0.50;;;0.50;;
67041;SDS011;53949;47.790;18.750;2023-08-07T06:31:08;0.60;;;0.60;;
67041;SDS011;53949;47.790;18.750;2023-08-07T06:34:13;0.80;;;0.60;;
67041;SDS011;53949;47.790;18.750;2023-08-07T06:37:16;0.80;;;0.50;;
67041;SDS011;53949;47.790;18.750;2023-08-07T06:40:20;2.05;;;0.47;;
67041;SDS011;53949;47.790;18.750;2023-08-07T06:43:23;1.90;;;0.80;;
67041;SDS011;53949;47.790;18.750;2023-08-07T06:46:27;0.40;;;0.40;;
67041;SDS011;53949;47.790;18.750;2023-08-07T06:49:33;1.95;;;0.57;;
67041;SDS011;53949;47.790;18.750;2023-08-07T06:52:38;0.40;;;0.40;;
67041;SDS011;53949;47.790;18.750;2023-08-07T06:55:43;0.73;;;0.50;;
67041;SDS011;53949;47.790;18.750;2023-08-07T06:58:49;0.90;;;0.50;;
67041;SDS011;53949;47.790;18.750;2023-08-07T07:01:52;0.30;;;0.30;;
67041;SDS011;53949;47.790;18.750;2023-08-07T07:04:56;0.35;;;0.35;;
67041;SDS011;53949;47.790;18.750;2023-08-07T07:08:01;0.90;;;0.37;;
67041;SDS011;53949;47.790;18.750;2023-08-07T07:11:07;0.50;;;0.40;;
67041;SDS011;53949;47.790;18.750;2023-08-07T07:14:12;0.40;;;0.40;;
67041;SDS011;53949;47.790;18.750;2023-08-07T07:17:16;2.72;;;0.35;;
67041;SDS011;53949;47.790;18.750;2023-08-07T07:20:19;0.65;;;0.32;;
67041;SDS011;53949;47.790;18.750;2023-08-07T07:23:23;0.50;;;0.50;;
67041;SDS011;53949;47.790;18.750;2023-08-07T07:26:27;0.50;;;0.40;;
67041;SDS011;53949;47.790;18.750;2023-08-07T07:29:30;1.60;;;0.25;;
67041;SDS011;53949;47.790;18.750;2023-08-07T07:32:34;0.28;;;0.28;;
67041;SDS011;53949;47.790;18.750;2023-08-07T07:35:38;0.22;;;0.22;;
67041;SDS011;53949;47.790;18.750;2023-08-07T07:38:41;1.90;;;0.30;;
67041;SDS011;53949;47.790;18.750;2023-08-07T07:41:49;0.25;;;0.25;;
67041;SDS011;53949;47.790;18.750;2023-08-07T07:44:52;2.58;;;0.20;;
67041;SDS011;53949;47.790;18.750;2023-08-07T07:47:56;0.32;;;0.20;;
67041;SDS011;53949;47.790;18.750;2023-08-07T07:51:02;0.82;;;0.20;;
67041;SDS011;53949;47.790;18.750;2023-08-07T07:54:07;2.25;;;0.30;;
67041;SDS011;53949;47.790;18.750;2023-08-07T07:57:16;0.35;;;0.20;;
67041;SDS011;53949;47.790;18.750;2023-08-07T08:00:21;0.10;;;0.10;;
67041;SDS011;53949;47.790;18.750;2023-08-07T08:03:29;1.23;;;0.15;;
67041;SDS011;53949;47.790;18.750;2023-08-07T08:06:32;0.40;;;0.10;;
67041;SDS011;53949;47.790;18.750;2023-08-07T08:09:36;0.30;;;0.20;;
67041;SDS011;53949;47.790;18.750;2023-08-07T08:12:39;0.40;;;0.10;;
67041;SDS011;53949;47.790;18.750;2023-08-07T08:15:43;0.52;;;0.45;;
67041;SDS011;53949;47.790;18.750;2023-08-07T08:18:50;0.20;;;0.20;;
67041;SDS011;53949;47.790;18.750;2023-08-07T08:22:00;0.62;;;0.17;;
67041;SDS011;53949;47.790;18.750;2023-08-07T08:25:04;1.85;;;0.20;;
67041;SDS011;53949;47.790;18.750;2023-08-07T08:28:09;0.10;;;0.10;;
67041;SDS011;53949;47.790;18.750;2023-08-07T08:31:13;1.95;;;0.15;;
67041;SDS011;53949;47.790;18.750;2023-08-07T08:34:16;0.17;;;0.17;;
67041;SDS011;53949;47.790;18.750;2023-08-07T08:37:19;0.20;;;0.10;;
67041;SDS011;53949;47.790;18.750;2023-08-07T08:40:23;0.10;;;0.10;;
67041;SDS011;53949;47.790;18.750;2023-08-07T08:43:27;0.10;;;0.10;;
67041;SDS011;53949;47.790;18.750;2023-08-07T08:46:33;0.10;;;0.10;;
67041;SDS011;53949;47.790;18.750;2023-08-07T08:49:41;0.20;;;0.17;;
67041;SDS011;53949;47.790;18.750;2023-08-07T08:52:49;1.85;;;0.10;;
67041;SDS011;53949;47.790;18.750;2023-08-07T08:55:54;0.65;;;0.20;;
67041;SDS011;53949;47.790;18.750;2023-08-07T08:58:57;0.65;;;0.40;;
67041;SDS011;53949;47.790;18.750;2023-08-07T09:02:01;1.95;;;0.73;;
67041;SDS011;53949;47.790;18.750;2023-08-07T09:05:05;0.10;;;0.10;;
67041;SDS011;53949;47.790;18.750;2023-08-07T09:08:08;0.10;;;0.10;;
67041;SDS011;53949;47.790;18.750;2023-08-07T09:11:13;0.15;;;0.10;;
67041;SDS011;53949;47.790;18.750;2023-08-07T09:14:17;0.17;;;0.10;;
67041;SDS011;53949;47.790;18.750;2023-08-07T09:17:28;0.40;;;0.10;;
67041;SDS011;53949;47.790;18.750;2023-08-07T09:20:32;3.83;;;0.20;;
67041;SDS011;53949;47.790;18.750;2023-08-07T09:23:37;0.10;;;0.10;;
67041;SDS011;53949;47.790;18.750;2023-08-07T09:26:42;0.10;;;0.10;;
67041;SDS011;53949;47.790;18.750;2023-08-07T09:29:51;0.10;;;0.10;;
67041;SDS011;53949;47.790;18.750;2023-08-07T09:32:58;0.28;;;0.28;;
67041;SDS011;53949;47.790;18.750;2023-08-07T09:36:02;0.52;;;0.20;;
67041;SDS011;53949;47.790;18.750;2023-08-07T09:39:06;0.62;;;0.20;;
67041;SDS011;53949;47.790;18.750;2023-08-07T09:42:16;3.53;;;0.25;;
67041;SDS011;53949;47.790;18.750;2023-08-07T09:48:24;2.17;;;0.20;;
67041;SDS011;53949;47.790;18.750;2023-08-07T09:51:31;0.10;;;0.10;;
67041;SDS011;53949;47.790;18.750;2023-08-07T09:54:44;0.35;;;0.10;;
67041;SDS011;53949;47.790;18.750;2023-08-07T09:57:47;2.72;;;0.10;;
67041;SDS011;53949;47.790;18.750;2023-08-07T10:00:52;0.22;;;0.10;;
67041;SDS011;53949;47.790;18.750;2023-08-07T10:04:02;0.20;;;0.20;;
67041;SDS011;53949;47.790;18.750;2023-08-07T10:07:08;0.10;;;0.10;;
67041;SDS011;53949;47.790;18.750;2023-08-07T10:10:13;1.55;;;0.10;;
67041;SDS011;53949;47.790;18.750;2023-08-07T10:13:17;0.10;;;0.10;;
67041;SDS011;53949;47.790;18.750;2023-08-07T10:16:30;0.20;;;0.20;;
67041;SDS011;53949;47.790;18.750;2023-08-07T10:19:33;0.15;;;0.10;;
67041;SDS011;53949;47.790;18.750;2023-08-07T10:22:38;0.30;;;0.30;;
67041;SDS011;53949;47.790;18.750;2023-08-07T10:25:41;0.10;;;0.10;;
67041;SDS011;53949;47.790;18.750;2023-08-07T10:28:48;0.17;;;0.17;;
67041;SDS011;53949;47.790;18.750;2023-08-07T10:31:53;0.35;;;0.25;;
67041;SDS011;53949;47.790;18.750;2023-08-07T10:35:02;0.10;;;0.10;;
67041;SDS011;53949;47.790;18.750;2023-08-07T10:38:11;0.20;;;0.20;;
67041;SDS011;53949;47.790;18.750;2023-08-07T10:41:15;0.10;;;0.10;;
67041;SDS011;53949;47.790;18.750;2023-08-07T10:47:34;0.65;;;0.20;;
67041;SDS011;53949;47.790;18.750;2023-08-07T10:53:54;1.95;;;0.20;;
67041;SDS011;53949;47.790;18.750;2023-08-07T10:56:59;0.35;;;0.28;;
67041;SDS011;53949;47.790;18.750;2023-08-07T11:00:03;1.90;;;0.30;;
67041;SDS011;53949;47.790;18.750;2023-08-07T11:03:19;0.10;;;0.10;;
67041;SDS011;53949;47.790;18.750;2023-08-07T11:09:37;0.47;;;0.20;;
67041;SDS011;53949;47.790;18.750;2023-08-07T11:12:40;0.20;;;0.20;;
67041;SDS011;53949;47.790;18.750;2023-08-07T11:15:45;0.20;;;0.20;;
67041;SDS011;53949;47.790;18.750;2023-08-07T11:18:49;0.35;;;0.20;;
67041;SDS011;53949;47.790;18.750;2023-08-07T11:21:53;2.10;;;0.20;;
67041;SDS011;53949;47.790;18.750;2023-08-07T11:24:57;0.20;;;0.20;;
67041;SDS011;53949;47.790;18.750;2023-08-07T11:28:00;1.52;;;0.40;;
67041;SDS011;53949;47.790;18.750;2023-08-07T11:31:03;0.30;;;0.30;;
67041;SDS011;53949;47.790;18.750;2023-08-07T11:34:07;0.43;;;0.25;;
67041;SDS011;53949;47.790;18.750;2023-08-07T11:37:14;0.10;;;0.10;;
67041;SDS011;53949;47.790;18.750;2023-08-07T11:40:19;0.20;;;0.20;;
67041;SDS011;53949;47.790;18.750;2023-08-07T11:43:23;0.20;;;0.20;;
67041;SDS011;53949;47.790;18.750;2023-08-07T11:46:26;0.25;;;0.25;;
67041;SDS011;53949;47.790;18.750;2023-08-07T11:52:36;0.20;;;0.20;;
67041;SDS011;53949;47.790;18.750;2023-08-07T11:58:56;0.22;;;0.17;;
67041;SDS011;53949;47.790;18.750;2023-08-07T12:02:11;0.70;;;0.30;;
67041;SDS011;53949;47.790;18.750;2023-08-07T12:05:14;1.48;;;0.20;;
67041;SDS011;53949;47.790;18.750;2023-08-07T12:08:18;0.22;;;0.20;;
67041;SDS011;53949;47.790;18.750;2023-08-07T12:11:22;0.25;;;0.25;;
67041;SDS011;53949;47.790;18.750;2023-08-07T12:14:30;5.32;;;0.30;;
67041;SDS011;53949;47.790;18.750;2023-08-07T12:17:34;1.37;;;0.40;;
67041;SDS011;53949;47.790;18.750;2023-08-07T12:23:43;0.20;;;0.20;;
67041;SDS011;53949;47.790;18.750;2023-08-07T12:26:47;2.87;;;0.20;;
67041;SDS011;53949;47.790;18.750;2023-08-07T12:29:50;0.82;;;0.25;;
67041;SDS011;53949;47.790;18.750;2023-08-07T12:32:53;1.45;;;0.20;;
67041;SDS011;53949;47.790;18.750;2023-08-07T12:35:57;0.70;;;0.30;;
67041;SDS011;53949;47.790;18.750;2023-08-07T12:39:01;0.40;;;0.30;;
67041;SDS011;53949;47.790;18.750;2023-08-07T12:42:04;0.30;;;0.30;;
67041;SDS011;53949;47.790;18.750;2023-08-07T12:45:11;0.28;;;0.28;;
67041;SDS011;53949;47.790;18.750;2023-08-07T12:48:17;1.15;;;0.40;;
67041;SDS011;53949;47.790;18.750;2023-08-07T12:51:21;0.30;;;0.30;;
67041;SDS011;53949;47.790;18.750;2023-08-07T12:54:25;0.37;;;0.30;;
67041;SDS011;53949;47.790;18.750;2023-08-07T12:57:28;0.55;;;0.30;;
67041;SDS011;53949;47.790;18.750;2023-08-07T13:00:33;0.37;;;0.32;;
67041;SDS011;53949;47.790;18.750;2023-08-07T13:03:37;4.95;;;0.35;;
67041;SDS011;53949;47.790;18.750;2023-08-07T13:06:41;1.30;;;0.37;;
67041;SDS011;53949;47.790;18.750;2023-08-07T13:09:44;0.82;;;0.45;;
67041;SDS011;53949;47.790;18.750;2023-08-07T13:12:47;1.00;;;0.30;;
67041;SDS011;53949;47.790;18.750;2023-08-07T13:15:52;0.30;;;0.30;;
67041;SDS011;53949;47.790;18.750;2023-08-07T13:18:57;1.30;;;0.60;;
67041;SDS011;53949;47.790;18.750;2023-08-07T13:22:00;1.37;;;0.50;;
67041;SDS011;53949;47.790;18.750;2023-08-07T13:25:04;0.50;;;0.40;;
67041;SDS011;53949;47.790;18.750;2023-08-07T13:28:10;3.30;;;0.30;;
67041;SDS011;53949;47.790;18.750;2023-08-07T13:31:13;0.90;;;0.60;;
67041;SDS011;53949;47.790;18.750;2023-08-07T13:34:17;0.30;;;0.30;;
67041;SDS011;53949;47.790;18.750;2023-08-07T13:37:23;0.40;;;0.40;;
67041;SDS011;53949;47.790;18.750;2023-08-07T13:40:26;0.47;;;0.40;;
67041;SDS011;53949;47.790;18.750;2023-08-07T13:43:30;0.20;;;0.20;;
67041;SDS011;53949;47.790;18.750;2023-08-07T13:46:33;0.82;;;0.60;;
67041;SDS011;53949;47.790;18.750;2023-08-07T13:49:38;0.90;;;0.52;;
67041;SDS011;53949;47.790;18.750;2023-08-07T13:52:42;0.50;;;0.50;;
67041;SDS011;53949;47.790;18.750;2023-08-07T13:55:47;0.30;;;0.30;;
67041;SDS011;53949;47.790;18.750;2023-08-07T13:58:52;0.53;;;0.40;;
67041;SDS011;53949;47.790;18.750;2023-08-07T14:01:58;0.45;;;0.45;;
67041;SDS011;53949;47.790;18.750;2023-08-07T14:05:04;0.37;;;0.37;;
67041;SDS011;53949;47.790;18.750;2023-08-07T14:08:10;1.23;;;0.40;;
67041;SDS011;53949;47.790;18.750;2023-08-07T14:11:14;0.40;;;0.40;;
67041;SDS011;53949;47.790;18.750;2023-08-07T14:14:18;3.78;;;0.50;;
67041;SDS011;53949;47.790;18.750;2023-08-07T14:17:24;1.27;;;0.50;;
67041;SDS011;53949;47.790;18.750;2023-08-07T14:20:28;3.30;;;0.70;;
67041;SDS011;53949;47.790;18.750;2023-08-07T14:23:33;0.50;;;0.50;;
67041;SDS011;53949;47.790;18.750;2023-08-07T14:26:36;1.00;;;0.30;;
67041;SDS011;53949;47.790;18.750;2023-08-07T14:29:40;0.65;;;0.50;;
67041;SDS011;53949;47.790;18.750;2023-08-07T14:32:43;0.40;;;0.40;;
67041;SDS011;53949;47.790;18.750;2023-08-07T14:35:47;1.52;;;0.60;;
67041;SDS011;53949;47.790;18.750;2023-08-07T14:38:50;0.40;;;0.40;;
67041;SDS011;53949;47.790;18.750;2023-08-07T14:41:53;0.88;;;0.60;;
67041;SDS011;53949;47.790;18.750;2023-08-07T14:44:58;0.52;;;0.52;;
67041;SDS011;53949;47.790;18.750;2023-08-07T14:48:01;0.57;;;0.43;;
67041;SDS011;53949;47.790;18.750;2023-08-07T14:51:04;0.50;;;0.50;;
67041;SDS011;53949;47.790;18.750;2023-08-07T14:54:08;0.80;;;0.55;;
67041;SDS011;53949;47.790;18.750;2023-08-07T14:57:12;0.35;;;0.35;;
67041;SDS011;53949;47.790;18.750;2023-08-07T15:00:16;0.50;;;0.47;;
67041;SDS011;53949;47.790;18.750;2023-08-07T15:03:21;0.47;;;0.47;;
67041;SDS011;53949;47.790;18.750;2023-08-07T15:06:24;0.62;;;0.62;;
67041;SDS011;53949;47.790;18.750;2023-08-07T15:09:28;0.60;;;0.60;;
67041;SDS011;53949;47.790;18.750;2023-08-07T15:12:32;0.77;;;0.63;;
67041;SDS011;53949;47.790;18.750;2023-08-07T15:15:35;0.98;;;0.60;;
67041;SDS011;53949;47.790;18.750;2023-08-07T15:18:39;1.40;;;0.50;;
67041;SDS011;53949;47.790;18.750;2023-08-07T15:21:43;0.70;;;0.57;;
67041;SDS011;53949;47.790;18.750;2023-08-07T15:24:47;0.57;;;0.57;;
67041;SDS011;53949;47.790;18.750;2023-08-07T15:27:51;0.60;;;0.60;;
67041;SDS011;53949;47.790;18.750;2023-08-07T15:30:56;2.55;;;0.85;;
67041;SDS011;53949;47.790;18.750;2023-08-07T15:33:59;0.77;;;0.68;;
67041;SDS011;53949;47.790;18.750;2023-08-07T15:37:03;1.80;;;0.70;;
67041;SDS011;53949;47.790;18.750;2023-08-07T15:40:07;2.95;;;0.90;;
67041;SDS011;53949;47.790;18.750;2023-08-07T15:43:11;2.80;;;0.70;;
67041;SDS011;53949;47.790;18.750;2023-08-07T15:46:16;0.90;;;0.65;;
67041;SDS011;53949;47.790;18.750;2023-08-07T15:49:20;0.52;;;0.52;;
67041;SDS011;53949;47.790;18.750;2023-08-07T15:52:24;0.70;;;0.70;;
67041;SDS011;53949;47.790;18.750;2023-08-07T15:55:28;0.73;;;0.70;;
67041;SDS011;53949;47.790;18.750;2023-08-07T15:58:34;1.08;;;0.98;;
67041;SDS011;53949;47.790;18.750;2023-08-07T16:01:37;1.35;;;0.82;;
67041;SDS011;53949;47.790;18.750;2023-08-07T16:04:41;1.08;;;0.70;;
67041;SDS011;53949;47.790;18.750;2023-08-07T16:07:44;0.95;;;0.90;;
67041;SDS011;53949;47.790;18.750;2023-08-07T16:10:47;0.52;;;0.52;;
67041;SDS011;53949;47.790;18.750;2023-08-07T16:13:55;0.70;;;0.70;;
67041;SDS011;53949;47.790;18.750;2023-08-07T16:16:59;1.75;;;0.90;;
67041;SDS011;53949;47.790;18.750;2023-08-07T16:20:02;0.85;;;0.57;;
67041;SDS011;53949;47.790;18.750;2023-08-07T16:23:06;0.60;;;0.60;;
67041;SDS011;53949;47.790;18.750;2023-08-07T16:26:10;0.70;;;0.70;;
67041;SDS011;53949;47.790;18.750;2023-08-07T16:29:16;0.60;;;0.60;;
67041;SDS011;53949;47.790;18.750;2023-08-07T16:32:21;1.08;;;0.65;;
67041;SDS011;53949;47.790;18.750;2023-08-07T16:35:27;0.70;;;0.70;;
67041;SDS011;53949;47.790;18.750;2023-08-07T16:38:31;0.52;;;0.52;;
67041;SDS011;53949;47.790;18.750;2023-08-07T16:41:36;1.35;;;0.90;;
67041;SDS011;53949;47.790;18.750;2023-08-07T16:44:44;2.62;;;0.60;;
67041;SDS011;53949;47.790;18.750;2023-08-07T16:47:48;1.20;;;0.77;;
67041;SDS011;53949;47.790;18.750;2023-08-07T16:50:53;0.80;;;0.70;;
67041;SDS011;53949;47.790;18.750;2023-08-07T16:54:17;1.83;;;0.80;;
67041;SDS011;53949;47.790;18.750;2023-08-07T16:57:20;1.87;;;0.80;;
67041;SDS011;53949;47.790;18.750;2023-08-07T17:00:25;1.10;;;0.67;;
67041;SDS011;53949;47.790;18.750;2023-08-07T17:03:29;2.53;;;0.60;;
67041;SDS011;53949;47.790;18.750;2023-08-07T17:06:34;0.82;;;0.80;;
67041;SDS011;53949;47.790;18.750;2023-08-07T17:10:00;2.65;;;0.80;;
67041;SDS011;53949;47.790;18.750;2023-08-07T17:13:05;2.13;;;0.70;;
67041;SDS011;53949;47.790;18.750;2023-08-07T17:16:09;0.65;;;0.65;;
67041;SDS011;53949;47.790;18.750;2023-08-07T17:22:17;0.88;;;0.80;;
67041;SDS011;53949;47.790;18.750;2023-08-07T17:25:22;0.70;;;0.70;;
67041;SDS011;53949;47.790;18.750;2023-08-07T17:28:25;0.82;;;0.82;;
67041;SDS011;53949;47.790;18.750;2023-08-07T17:31:29;2.97;;;0.90;;
67041;SDS011;53949;47.790;18.750;2023-08-07T17:34:35;5.87;;;0.80;;
67041;SDS011;53949;47.790;18.750;2023-08-07T17:37:39;2.25;;;0.70;;
67041;SDS011;53949;47.790;18.750;2023-08-07T17:40:45;1.27;;;0.97;;
67041;SDS011;53949;47.790;18.750;2023-08-07T17:43:51;0.88;;;0.80;;
67041;SDS011;53949;47.790;18.750;2023-08-07T17:46:55;1.07;;;0.83;;
67041;SDS011;53949;47.790;18.750;2023-08-07T17:50:00;0.68;;;0.68;;
67041;SDS011;53949;47.790;18.750;2023-08-07T17:53:04;0.73;;;0.70;;
67041;SDS011;53949;47.790;18.750;2023-08-07T17:56:08;0.93;;;0.93;;
67041;SDS011;53949;47.790;18.750;2023-08-07T17:59:12;1.67;;;1.08;;
67041;SDS011;53949;47.790;18.750;2023-08-07T18:02:17;2.22;;;0.90;;
67041;SDS011;53949;47.790;18.750;2023-08-07T18:05:22;0.80;;;0.80;;
67041;SDS011;53949;47.790;18.750;2023-08-07T18:08:27;0.80;;;0.80;;
67041;SDS011;53949;47.790;18.750;2023-08-07T18:11:33;0.80;;;0.80;;
67041;SDS011;53949;47.790;18.750;2023-08-07T18:14:38;1.00;;;0.90;;
67041;SDS011;53949;47.790;18.750;2023-08-07T18:17:43;1.70;;;0.90;;
67041;SDS011;53949;47.790;18.750;2023-08-07T18:20:47;2.25;;;1.00;;
67041;SDS011;53949;47.790;18.750;2023-08-07T18:23:51;0.80;;;0.80;;
67041;SDS011;53949;47.790;18.750;2023-08-07T18:26:55;0.90;;;0.90;;
67041;SDS011;53949;47.790;18.750;2023-08-07T18:30:00;2.42;;;1.00;;
67041;SDS011;53949;47.790;18.750;2023-08-07T18:33:08;0.80;;;0.80;;
67041;SDS011;53949;47.790;18.750;2023-08-07T18:39:18;1.00;;;1.00;;
67041;SDS011;53949;47.790;18.750;2023-08-07T18:42:21;1.95;;;1.35;;
67041;SDS011;53949;47.790;18.750;2023-08-07T18:45:25;1.70;;;1.10;;
67041;SDS011;53949;47.790;18.750;2023-08-07T18:48:29;1.17;;;1.00;;
67041;SDS011;53949;47.790;18.750;2023-08-07T18:51:34;1.42;;;1.15;;
67041;SDS011;53949;47.790;18.750;2023-08-07T18:54:40;1.42;;;1.00;;
67041;SDS011;53949;47.790;18.750;2023-08-07T18:57:43;1.62;;;0.85;;